Elin Gertrude — WDI9304 — position and weather

sailwx.info

Track history (hours):
 
Tides and Currents Weather Stations Pressure Air Temp Water Temp Dewpoint Dewpoint Depression Visibility Wind Speed Wind Dir Waves Ship Positions

Elin Gertrude

Owner: GraeStone Logistics LLC, Murray, KY. More information available from US FCC via Universal Licensing System and Coast Guard Vessel Documentation Center.

Last reported at 2018-Jun-19 03:00 UTC. Time now 2018-Jun-19 03:00 UTC.
Position N 29°37' W 090°42'.

Length 24 m; draft 11.1 m.

Type: Towing. MMSI: 367747310.

Date/timePositionNaut miles runAvg speedWind from/ knotsBaromVisibWave heightAir tempDewpointWater temp
2018-Jun-19 03:00N 29°37' W 090°42'1 2.6
2018-Jun-19 02:30N 29°36' W 090°41'1 2.6
2018-Jun-19 02:00N 29°36' W 090°40'1 2.8
2018-Jun-19 01:30N 29°35' W 090°38'1 2.8
2018-Jun-19 01:00N 29°35' W 090°37'1 2.7
2018-Jun-19 00:30N 29°35' W 090°35'1 2.6
2018-Jun-19 00:00N 29°34' W 090°34'1 2.7
2018-Jun-18 23:30N 29°34' W 090°32'1 2.7
2018-Jun-18 23:00N 29°34' W 090°31'1 2.7
2018-Jun-18 22:28N 29°34' W 090°29'1 2.8
2018-Jun-18 21:56N 29°33' W 090°27'3 2.5
2018-Jun-18 20:43N 29°33' W 090°24'5 2.5
2018-Jun-18 18:51N 29°37' W 090°21'  
2018-Jun-14 06:24N 29°33' W 090°24'1 3.3
2018-Jun-14 06:00N 29°33' W 090°25'2 3.2
2018-Jun-14 05:28N 29°33' W 090°27'1 2.9
2018-Jun-14 05:00N 29°34' W 090°29'2 3.1
2018-Jun-14 04:30N 29°34' W 090°31'2 3.1
2018-Jun-14 04:00N 29°34' W 090°33'1 2.6
2018-Jun-14 03:30N 29°34' W 090°34'1 3.0
2018-Jun-14 03:00N 29°35' W 090°36'2 3.0
2018-Jun-14 02:30N 29°35' W 090°37'2 3.2
2018-Jun-14 02:00N 29°36' W 090°39'2 3.1
2018-Jun-14 01:30N 29°36' W 090°40'2 3.1
2018-Jun-14 01:00N 29°37' W 090°42'1 2.7
2018-Jun-14 00:30N 29°36' W 090°43'1 3.0
2018-Jun-14 00:00N 29°34' W 090°43'1 2.4
2018-Jun-13 23:30N 29°34' W 090°44'0 0.3
2018-Jun-13 23:00N 29°34' W 090°45'0 0.1
2018-Jun-13 22:30N 29°34' W 090°45'1 1.4
2018-Jun-13 22:00N 29°33' W 090°45'2 3.1
2018-Jun-13 21:30N 29°32' W 090°46'2 3.6
2018-Jun-13 21:00N 29°32' W 090°48'2 3.6
2018-Jun-13 20:29N 29°32' W 090°51'3 3.5
2018-Jun-13 19:43N 29°33' W 090°54'5 3.7
2018-Jun-13 18:28N 29°35' W 090°58'34 2.3
2018-Jun-13 03:51N 29°45' W 091°35'4 2.1
2018-Jun-13 01:52N 29°46' W 091°40'9 1.4
2018-Jun-12 19:02N 29°50' W 091°49'0 1.5
2018-Jun-12 19:00N 29°50' W 091°50'4 2.1
2018-Jun-12 16:59N 29°51' W 091°54'2 3.8
2018-Jun-12 16:30N 29°51' W 091°56'2 4.1
2018-Jun-12 15:59N 29°50' W 091°59'2 4.2
2018-Jun-12 15:30N 29°49' W 092°01'2 4.2
2018-Jun-12 15:00N 29°49' W 092°03'2 4.4
2018-Jun-12 14:30N 29°48' W 092°06'2 4.5
2018-Jun-12 14:00N 29°47' W 092°08'2 3.8
2018-Jun-12 13:30N 29°47' W 092°10'0 0.9
2018-Jun-12 13:00N 29°47' W 092°11'0 0.1
2018-Jun-12 12:30N 29°47' W 092°11'0 0.0
2018-Jun-12 12:00N 29°47' W 092°11'0 0.0
2018-Jun-12 11:30N 29°47' W 092°11'0 0.0
2018-Jun-12 11:00N 29°47' W 092°11'0 0.0
2018-Jun-12 10:30N 29°47' W 092°11'0 0.0
2018-Jun-12 10:00N 29°47' W 092°11'0 0.0
2018-Jun-12 09:30N 29°47' W 092°11'0 0.1
2018-Jun-12 09:00N 29°47' W 092°11'1 2.4
2018-Jun-12 08:30N 29°47' W 092°12'1 1.7
2018-Jun-12 08:00N 29°47' W 092°13'1 1.3
2018-Jun-12 07:30N 29°48' W 092°14'0 0.0
2018-Jun-12 07:00N 29°48' W 092°14'0 0.0
2018-Jun-12 06:30N 29°48' W 092°14'1 1.1
2018-Jun-12 06:00N 29°48' W 092°14'0 0.1
2018-Jun-12 05:30N 29°48' W 092°14'2 3.4
2018-Jun-12 05:00N 29°49' W 092°16'2 3.5
2018-Jun-12 04:30N 29°50' W 092°18'2 3.4
2018-Jun-12 04:00N 29°50' W 092°19'2 3.7
2018-Jun-12 03:30N 29°51' W 092°21'1 2.4
2018-Jun-12 02:56N 29°52' W 092°22'1 3.0
2018-Jun-12 02:28N 29°53' W 092°23'33 3.5
2018-Jun-11 17:03N 29°56' W 093°01'0 3.7
2018-Jun-11 16:56N 29°56' W 093°02'2 3.7
2018-Jun-11 16:30N 29°56' W 093°04'2 3.5
2018-Jun-11 15:57N 29°56' W 093°06'3 3.7
2018-Jun-11 15:13N 29°56' W 093°09'1 3.5
2018-Jun-11 15:00N 29°56' W 093°10'2 3.7
2018-Jun-11 14:30N 29°58' W 093°11'2 3.3
2018-Jun-11 14:00N 29°59' W 093°12'2 3.4
2018-Jun-11 13:30N 30°00' W 093°14'2 3.2
2018-Jun-11 13:00N 30°02' W 093°14'2 3.2
2018-Jun-11 12:30N 30°03' W 093°16'2 3.1
2018-Jun-11 12:00N 30°04' W 093°16'1 2.9
2018-Jun-11 11:30N 30°05' W 093°18'0 0.5
2018-Jun-11 11:00N 30°05' W 093°18'0 0.7
2018-Jun-11 10:30N 30°06' W 093°18'0 0.8
2018-Jun-11 10:00N 30°06' W 093°18'0 0.0
2018-Jun-11 09:30N 30°06' W 093°18'0 0.0
2018-Jun-11 09:00N 30°06' W 093°18'0 0.0
2018-Jun-11 08:30N 30°06' W 093°18'0 0.0
2018-Jun-11 08:00N 30°06' W 093°18'0 0.0
2018-Jun-11 07:30N 30°06' W 093°18'0 0.0
2018-Jun-11 06:59N 30°06' W 093°18'0 0.0
2018-Jun-11 06:30N 30°06' W 093°18'0 0.0
2018-Jun-11 06:00N 30°06' W 093°18'0 0.0
2018-Jun-11 05:30N 30°06' W 093°18'0 0.0
2018-Jun-11 05:00N 30°06' W 093°18'0 0.3
2018-Jun-11 04:30N 30°06' W 093°18'2 3.1
2018-Jun-11 04:00N 30°05' W 093°20'2 3.8
2018-Jun-11 03:30N 30°04' W 093°21'1 2.1
2018-Jun-11 03:00N 30°04' W 093°22'0 0.3
2018-Jun-11 02:30N 30°04' W 093°23'2 3.5
2018-Jun-11 02:00N 30°04' W 093°25'2 4.2
2018-Jun-11 01:30N 30°04' W 093°27'2 4.1
2018-Jun-11 01:00N 30°04' W 093°29'2 4.1
2018-Jun-11 00:30N 30°04' W 093°32'2 4.0
2018-Jun-11 00:00N 30°04' W 093°34'2 4.0
2018-Jun-10 23:30N 30°04' W 093°36'2 4.2
2018-Jun-10 23:00N 30°04' W 093°39'2 4.2
2018-Jun-10 22:30N 30°03' W 093°41'2 4.2
2018-Jun-10 22:00N 30°03' W 093°44'2 4.4
2018-Jun-10 21:30N 30°01' W 093°45'2 4.5
2018-Jun-10 21:00N 29°60' W 093°47'2 4.4
2018-Jun-10 20:30N 29°59' W 093°49'2 3.7
2018-Jun-10 20:00N 29°58' W 093°51'2 4.6
2018-Jun-10 19:30N 29°56' W 093°52'2 4.8
2018-Jun-10 19:00N 29°54' W 093°54'2 4.7
2018-Jun-10 18:30N 29°52' W 093°56'2 4.5
2018-Jun-10 18:00N 29°50' W 093°57'2 3.8
2018-Jun-10 17:30N 29°49' W 093°59'2 3.8
2018-Jun-10 17:00N 29°48' W 094°00'2 3.9
2018-Jun-10 16:30N 29°47' W 094°02'2 3.8
2018-Jun-10 16:00N 29°45' W 094°04'2 4.0
2018-Jun-10 15:30N 29°44' W 094°06'2 4.1
2018-Jun-10 15:00N 29°43' W 094°07'4 3.9
2018-Jun-10 14:00N 29°41' W 094°11'2 4.1
2018-Jun-10 13:30N 29°40' W 094°14'2 3.9
2018-Jun-10 13:00N 29°39' W 094°16'2 3.9
2018-Jun-10 12:30N 29°38' W 094°18'2 3.7
2018-Jun-10 12:00N 29°37' W 094°19'2 3.8
2018-Jun-10 11:30N 29°37' W 094°21'2 3.6
2018-Jun-10 11:00N 29°36' W 094°23'2 3.1
2018-Jun-10 10:29N 29°35' W 094°25'2 3.3
2018-Jun-10 09:57N 29°34' W 094°26'4 3.9
2018-Jun-10 08:55N 29°31' W 094°30'13 3.7
2018-Jun-10 05:34N 29°26' W 094°43'0 4.4
2018-Jun-10 05:29N 29°26' W 094°43'0 0.4
2018-Jun-10 05:00N 29°25' W 094°43'0 0.0
2018-Jun-10 04:30N 29°25' W 094°43'0 0.1
2018-Jun-10 03:53N 29°25' W 094°43'0 0.3
2018-Jun-10 03:23N 29°25' W 094°43'0 0.3
2018-Jun-10 02:56N 29°25' W 094°43'0 0.1
2018-Jun-10 02:29N 29°25' W 094°43'0 0.9
2018-Jun-10 01:59N 29°25' W 094°44'2 3.7
2018-Jun-10 01:30N 29°24' W 094°45'13 3.8
2018-Jun-09 22:02N 29°34' W 094°55'0 4.9
2018-Jun-09 21:58N 29°34' W 094°55'2 5.0
2018-Jun-09 21:30N 29°36' W 094°57'3 5.1
2018-Jun-09 21:00N 29°38' W 094°58'3 4.8
2018-Jun-09 20:24N 29°41' W 094°59'8 0.6
2018-Jun-09 07:38N 29°46' W 095°06'0 0.0
2018-Jun-09 07:27N 29°46' W 095°06'0 0.0
2018-Jun-09 07:00N 29°46' W 095°06'0 0.0
2018-Jun-09 06:29N 29°46' W 095°06'0 0.0
2018-Jun-09 06:00N 29°46' W 095°06'0 0.0
2018-Jun-09 05:27N 29°46' W 095°06'0 0.0
2018-Jun-09 04:54N 29°46' W 095°06'0 0.0
2018-Jun-09 04:25N 29°46' W 095°06'0 0.0
2018-Jun-09 03:57N 29°46' W 095°06'0 0.0
2018-Jun-09 03:30N 29°46' W 095°06'  
Track history (hours):
 
Tides and Currents Weather Stations Pressure Air Temp Water Temp Dewpoint Dewpoint Depression Visibility Wind Speed Wind Dir Waves Ship Positions

Elin Gertrude

Owner: GraeStone Logistics LLC, Murray, KY. More information available from US FCC via Universal Licensing System and Coast Guard Vessel Documentation Center.

Last reported at 2018-Jun-19 03:00 UTC. Time now 2018-Jun-19 03:00 UTC.
Position N 29°37' W 090°42'.

Length 24 m; draft 11.1 m.

Type: Towing. MMSI: 367747310.

Date/timePositionNaut miles runAvg speedWind from/ knotsBaromVisibWave heightAir tempDewpointWater temp
2018-Jun-19 03:00N 29°37' W 090°42'1 2.6
2018-Jun-19 02:30N 29°36' W 090°41'1 2.6
2018-Jun-19 02:00N 29°36' W 090°40'1 2.8
2018-Jun-19 01:30N 29°35' W 090°38'1 2.8
2018-Jun-19 01:00N 29°35' W 090°37'1 2.7
2018-Jun-19 00:30N 29°35' W 090°35'1 2.6
2018-Jun-19 00:00N 29°34' W 090°34'1 2.7
2018-Jun-18 23:30N 29°34' W 090°32'1 2.7
2018-Jun-18 23:00N 29°34' W 090°31'1 2.7
2018-Jun-18 22:28N 29°34' W 090°29'1 2.8
2018-Jun-18 21:56N 29°33' W 090°27'3 2.5
2018-Jun-18 20:43N 29°33' W 090°24'5 2.5
2018-Jun-18 18:51N 29°37' W 090°21'  
2018-Jun-14 06:24N 29°33' W 090°24'1 3.3
2018-Jun-14 06:00N 29°33' W 090°25'2 3.2
2018-Jun-14 05:28N 29°33' W 090°27'1 2.9
2018-Jun-14 05:00N 29°34' W 090°29'2 3.1
2018-Jun-14 04:30N 29°34' W 090°31'2 3.1
2018-Jun-14 04:00N 29°34' W 090°33'1 2.6
2018-Jun-14 03:30N 29°34' W 090°34'1 3.0
2018-Jun-14 03:00N 29°35' W 090°36'2 3.0
2018-Jun-14 02:30N 29°35' W 090°37'2 3.2
2018-Jun-14 02:00N 29°36' W 090°39'2 3.1
2018-Jun-14 01:30N 29°36' W 090°40'2 3.1
2018-Jun-14 01:00N 29°37' W 090°42'1 2.7
2018-Jun-14 00:30N 29°36' W 090°43'1 3.0
2018-Jun-14 00:00N 29°34' W 090°43'1 2.4
2018-Jun-13 23:30N 29°34' W 090°44'0 0.3
2018-Jun-13 23:00N 29°34' W 090°45'0 0.1
2018-Jun-13 22:30N 29°34' W 090°45'1 1.4
2018-Jun-13 22:00N 29°33' W 090°45'2 3.1
2018-Jun-13 21:30N 29°32' W 090°46'2 3.6
2018-Jun-13 21:00N 29°32' W 090°48'2 3.6
2018-Jun-13 20:29N 29°32' W 090°51'3 3.5
2018-Jun-13 19:43N 29°33' W 090°54'5 3.7
2018-Jun-13 18:28N 29°35' W 090°58'34 2.3
2018-Jun-13 03:51N 29°45' W 091°35'4 2.1
2018-Jun-13 01:52N 29°46' W 091°40'9 1.4
2018-Jun-12 19:02N 29°50' W 091°49'0 1.5
2018-Jun-12 19:00N 29°50' W 091°50'4 2.1
2018-Jun-12 16:59N 29°51' W 091°54'2 3.8
2018-Jun-12 16:30N 29°51' W 091°56'2 4.1
2018-Jun-12 15:59N 29°50' W 091°59'2 4.2
2018-Jun-12 15:30N 29°49' W 092°01'2 4.2
2018-Jun-12 15:00N 29°49' W 092°03'2 4.4
2018-Jun-12 14:30N 29°48' W 092°06'2 4.5
2018-Jun-12 14:00N 29°47' W 092°08'2 3.8
2018-Jun-12 13:30N 29°47' W 092°10'0 0.9
2018-Jun-12 13:00N 29°47' W 092°11'0 0.1
2018-Jun-12 12:30N 29°47' W 092°11'0 0.0
2018-Jun-12 12:00N 29°47' W 092°11'0 0.0
2018-Jun-12 11:30N 29°47' W 092°11'0 0.0
2018-Jun-12 11:00N 29°47' W 092°11'0 0.0
2018-Jun-12 10:30N 29°47' W 092°11'0 0.0
2018-Jun-12 10:00N 29°47' W 092°11'0 0.0
2018-Jun-12 09:30N 29°47' W 092°11'0 0.1
2018-Jun-12 09:00N 29°47' W 092°11'1 2.4
2018-Jun-12 08:30N 29°47' W 092°12'1 1.7
2018-Jun-12 08:00N 29°47' W 092°13'1 1.3
2018-Jun-12 07:30N 29°48' W 092°14'0 0.0
2018-Jun-12 07:00N 29°48' W 092°14'0 0.0
2018-Jun-12 06:30N 29°48' W 092°14'1 1.1
2018-Jun-12 06:00N 29°48' W 092°14'0 0.1
2018-Jun-12 05:30N 29°48' W 092°14'2 3.4
2018-Jun-12 05:00N 29°49' W 092°16'2 3.5
2018-Jun-12 04:30N 29°50' W 092°18'2 3.4
2018-Jun-12 04:00N 29°50' W 092°19'2 3.7
2018-Jun-12 03:30N 29°51' W 092°21'1 2.4
2018-Jun-12 02:56N 29°52' W 092°22'1 3.0
2018-Jun-12 02:28N 29°53' W 092°23'33 3.5
2018-Jun-11 17:03N 29°56' W 093°01'0 3.7
2018-Jun-11 16:56N 29°56' W 093°02'2 3.7
2018-Jun-11 16:30N 29°56' W 093°04'2 3.5
2018-Jun-11 15:57N 29°56' W 093°06'3 3.7
2018-Jun-11 15:13N 29°56' W 093°09'1 3.5
2018-Jun-11 15:00N 29°56' W 093°10'2 3.7
2018-Jun-11 14:30N 29°58' W 093°11'2 3.3
2018-Jun-11 14:00N 29°59' W 093°12'2 3.4
2018-Jun-11 13:30N 30°00' W 093°14'2 3.2
2018-Jun-11 13:00N 30°02' W 093°14'2 3.2
2018-Jun-11 12:30N 30°03' W 093°16'2 3.1
2018-Jun-11 12:00N 30°04' W 093°16'1 2.9
2018-Jun-11 11:30N 30°05' W 093°18'0 0.5
2018-Jun-11 11:00N 30°05' W 093°18'0 0.7
2018-Jun-11 10:30N 30°06' W 093°18'0 0.8
2018-Jun-11 10:00N 30°06' W 093°18'0 0.0
2018-Jun-11 09:30N 30°06' W 093°18'0 0.0
2018-Jun-11 09:00N 30°06' W 093°18'0 0.0
2018-Jun-11 08:30N 30°06' W 093°18'0 0.0
2018-Jun-11 08:00N 30°06' W 093°18'0 0.0
2018-Jun-11 07:30N 30°06' W 093°18'0 0.0
2018-Jun-11 06:59N 30°06' W 093°18'0 0.0
2018-Jun-11 06:30N 30°06' W 093°18'0 0.0
2018-Jun-11 06:00N 30°06' W 093°18'0 0.0
2018-Jun-11 05:30N 30°06' W 093°18'0 0.0
2018-Jun-11 05:00N 30°06' W 093°18'0 0.3
2018-Jun-11 04:30N 30°06' W 093°18'2 3.1
2018-Jun-11 04:00N 30°05' W 093°20'2 3.8
2018-Jun-11 03:30N 30°04' W 093°21'1 2.1
2018-Jun-11 03:00N 30°04' W 093°22'0 0.3
2018-Jun-11 02:30N 30°04' W 093°23'2 3.5
2018-Jun-11 02:00N 30°04' W 093°25'2 4.2
2018-Jun-11 01:30N 30°04' W 093°27'2 4.1
2018-Jun-11 01:00N 30°04' W 093°29'2 4.1
2018-Jun-11 00:30N 30°04' W 093°32'2 4.0
2018-Jun-11 00:00N 30°04' W 093°34'2 4.0
2018-Jun-10 23:30N 30°04' W 093°36'2 4.2
2018-Jun-10 23:00N 30°04' W 093°39'2 4.2
2018-Jun-10 22:30N 30°03' W 093°41'2 4.2
2018-Jun-10 22:00N 30°03' W 093°44'2 4.4
2018-Jun-10 21:30N 30°01' W 093°45'2 4.5
2018-Jun-10 21:00N 29°60' W 093°47'2 4.4
2018-Jun-10 20:30N 29°59' W 093°49'2 3.7
2018-Jun-10 20:00N 29°58' W 093°51'2 4.6
2018-Jun-10 19:30N 29°56' W 093°52'2 4.8
2018-Jun-10 19:00N 29°54' W 093°54'2 4.7
2018-Jun-10 18:30N 29°52' W 093°56'2 4.5
2018-Jun-10 18:00N 29°50' W 093°57'2 3.8
2018-Jun-10 17:30N 29°49' W 093°59'2 3.8
2018-Jun-10 17:00N 29°48' W 094°00'2 3.9
2018-Jun-10 16:30N 29°47' W 094°02'2 3.8
2018-Jun-10 16:00N 29°45' W 094°04'2 4.0
2018-Jun-10 15:30N 29°44' W 094°06'2 4.1
2018-Jun-10 15:00N 29°43' W 094°07'4 3.9
2018-Jun-10 14:00N 29°41' W 094°11'2 4.1
2018-Jun-10 13:30N 29°40' W 094°14'2 3.9
2018-Jun-10 13:00N 29°39' W 094°16'2 3.9
2018-Jun-10 12:30N 29°38' W 094°18'2 3.7
2018-Jun-10 12:00N 29°37' W 094°19'2 3.8
2018-Jun-10 11:30N 29°37' W 094°21'2 3.6
2018-Jun-10 11:00N 29°36' W 094°23'2 3.1
2018-Jun-10 10:29N 29°35' W 094°25'2 3.3
2018-Jun-10 09:57N 29°34' W 094°26'4 3.9
2018-Jun-10 08:55N 29°31' W 094°30'13 3.7
2018-Jun-10 05:34N 29°26' W 094°43'0 4.4
2018-Jun-10 05:29N 29°26' W 094°43'0 0.4
2018-Jun-10 05:00N 29°25' W 094°43'0 0.0
2018-Jun-10 04:30N 29°25' W 094°43'0 0.1
2018-Jun-10 03:53N 29°25' W 094°43'0 0.3
2018-Jun-10 03:23N 29°25' W 094°43'0 0.3
2018-Jun-10 02:56N 29°25' W 094°43'0 0.1
2018-Jun-10 02:29N 29°25' W 094°43'0 0.9
2018-Jun-10 01:59N 29°25' W 094°44'2 3.7
2018-Jun-10 01:30N 29°24' W 094°45'13 3.8
2018-Jun-09 22:02N 29°34' W 094°55'0 4.9
2018-Jun-09 21:58N 29°34' W 094°55'2 5.0
2018-Jun-09 21:30N 29°36' W 094°57'3 5.1
2018-Jun-09 21:00N 29°38' W 094°58'3 4.8
2018-Jun-09 20:24N 29°41' W 094°59'8 0.6
2018-Jun-09 07:38N 29°46' W 095°06'0 0.0
2018-Jun-09 07:27N 29°46' W 095°06'0 0.0
2018-Jun-09 07:00N 29°46' W 095°06'0 0.0
2018-Jun-09 06:29N 29°46' W 095°06'0 0.0
2018-Jun-09 06:00N 29°46' W 095°06'0 0.0
2018-Jun-09 05:27N 29°46' W 095°06'0 0.0
2018-Jun-09 04:54N 29°46' W 095°06'0 0.0
2018-Jun-09 04:25N 29°46' W 095°06'0 0.0
2018-Jun-09 03:57N 29°46' W 095°06'0 0.0
2018-Jun-09 03:30N 29°46' W 095°06'  

Dump ship's entire track history